createdAt,value
2023-02-04T00:02:05.665Z,3.92
2023-02-04T00:04:38.216Z,4.15
2023-02-04T00:07:11.481Z,4.30
2023-02-04T00:09:43.838Z,3.80
2023-02-04T00:12:17.191Z,4.85
2023-02-04T00:14:49.518Z,4.28
2023-02-04T00:17:21.799Z,4.07
2023-02-04T00:19:54.237Z,4.25
2023-02-04T00:22:48.381Z,4.30
2023-02-04T00:25:21.666Z,4.28
2023-02-04T00:27:53.781Z,4.47
2023-02-04T00:30:26.609Z,4.40
2023-02-04T00:32:58.534Z,4.38
2023-02-04T00:35:31.659Z,4.60
2023-02-04T00:38:04.780Z,4.40
2023-02-04T00:40:38.366Z,4.53
2023-02-04T00:43:10.693Z,4.47
2023-02-04T00:45:44.149Z,4.63
2023-02-04T00:48:16.265Z,4.73
2023-02-04T00:50:48.994Z,4.93
2023-02-04T00:53:20.893Z,5.22
2023-02-04T00:55:53.600Z,4.65
2023-02-04T00:58:26.941Z,4.60
2023-02-04T01:00:59.648Z,4.77
2023-02-04T01:03:31.519Z,4.60
2023-02-04T01:06:04.281Z,5.03
2023-02-04T01:08:36.739Z,4.90
2023-02-04T01:11:31.869Z,4.88
2023-02-04T01:14:04.157Z,4.93
2023-02-04T01:16:36.923Z,5.60
2023-02-04T01:19:08.925Z,5.20
2023-02-04T01:21:41.633Z,4.80
2023-02-04T01:24:15.494Z,5.80
2023-02-04T01:27:06.946Z,5.53
2023-02-04T01:29:38.795Z,5.10
2023-02-04T01:32:11.505Z,5.85
2023-02-04T01:34:43.849Z,5.57
2023-02-04T01:37:16.589Z,6.32
2023-02-04T01:39:48.436Z,5.60
2023-02-04T01:42:21.152Z,5.30
2023-02-04T01:44:54.014Z,5.72
2023-02-04T01:47:27.530Z,7.28
2023-02-04T01:50:00.340Z,6.20
2023-02-04T01:52:37.689Z,5.97
2023-02-04T01:55:22.660Z,6.00
2023-02-04T01:57:56.026Z,6.15
2023-02-04T02:00:32.873Z,5.47
2023-02-04T02:03:06.905Z,6.15
2023-02-04T02:05:47.541Z,6.40
2023-02-04T02:08:19.821Z,5.95
2023-02-04T02:10:53.543Z,5.90
2023-02-04T02:13:25.398Z,5.88
2023-02-04T02:15:58.088Z,5.15
2023-02-04T02:18:30.386Z,5.50
2023-02-04T02:21:09.860Z,5.20
2023-02-04T02:23:55.401Z,5.97
2023-02-04T02:26:28.719Z,5.55
2023-02-04T02:29:00.664Z,5.15
2023-02-04T02:31:33.428Z,5.40
2023-02-04T02:34:05.816Z,4.93
2023-02-04T02:36:38.486Z,5.10
2023-02-04T02:39:11.516Z,4.82
2023-02-04T02:41:44.339Z,4.80
2023-02-04T02:44:17.499Z,4.33
2023-02-04T02:46:50.249Z,4.45
2023-02-04T02:49:23.237Z,4.15
2023-02-04T02:51:55.490Z,4.05
2023-02-04T02:54:31.402Z,3.78
2023-02-04T02:57:20.206Z,3.80
2023-02-04T02:59:53.050Z,3.80
2023-02-04T03:02:25.147Z,3.55
2023-02-04T03:05:01.200Z,3.50
2023-02-04T03:07:36.057Z,3.95
2023-02-04T03:10:30.323Z,3.70
2023-02-04T03:13:04.407Z,3.35
2023-02-04T03:15:40.568Z,3.90
2023-02-04T03:18:18.539Z,3.50
2023-02-04T03:20:52.033Z,3.45
2023-02-04T03:23:25.090Z,3.90
2023-02-04T03:25:56.979Z,3.95
2023-02-04T03:28:32.011Z,4.20
2023-02-04T03:31:03.987Z,4.10
2023-02-04T03:33:36.685Z,4.18
2023-02-04T03:36:09.800Z,3.90
2023-02-04T03:38:42.042Z,4.82
2023-02-04T03:41:14.740Z,4.20
2023-02-04T03:43:47.051Z,4.57
2023-02-04T03:46:18.982Z,4.20
2023-02-04T03:48:51.284Z,4.10
2023-02-04T03:51:23.216Z,3.92
2023-02-04T03:53:55.985Z,4.32
2023-02-04T03:56:27.864Z,3.80
2023-02-04T03:59:00.536Z,3.90
2023-02-04T04:01:32.872Z,3.77
2023-02-04T04:04:05.196Z,4.10
2023-02-04T04:06:37.482Z,3.97
2023-02-04T04:09:09.377Z,3.58
2023-02-04T04:11:42.073Z,4.28
2023-02-04T04:14:14.012Z,3.60
2023-02-04T04:16:46.803Z,3.40
2023-02-04T04:19:19.055Z,4.15
2023-02-04T04:21:50.963Z,3.70
2023-02-04T04:24:24.088Z,3.38
2023-02-04T04:26:56.374Z,3.80
2023-02-04T04:29:50.475Z,3.58
2023-02-04T04:32:22.451Z,3.95
2023-02-04T04:34:55.165Z,3.55
2023-02-04T04:37:27.951Z,3.75
2023-02-04T04:40:00.984Z,4.23
2023-02-04T04:42:33.240Z,3.83
2023-02-04T04:45:11.782Z,3.60
2023-02-04T04:47:44.607Z,4.15
2023-02-04T04:50:17.718Z,3.35
2023-02-04T04:52:50.003Z,3.80
2023-02-04T04:55:21.997Z,3.65
2023-02-04T04:57:54.685Z,4.45
2023-02-04T05:00:27.031Z,3.55
2023-02-04T05:02:59.791Z,4.13
2023-02-04T05:05:31.682Z,3.57
2023-02-04T05:10:58.307Z,3.90
2023-02-04T05:13:30.329Z,4.03
2023-02-04T05:16:02.618Z,4.00
2023-02-04T05:18:35.369Z,4.10
2023-02-04T05:21:08.716Z,3.75
2023-02-04T05:23:40.690Z,3.78
2023-02-04T05:26:19.542Z,4.28
2023-02-04T05:28:57.860Z,3.65
2023-02-04T05:31:30.201Z,3.83
2023-02-04T05:34:02.524Z,4.03
2023-02-04T05:36:34.392Z,4.70
2023-02-04T05:39:07.087Z,4.20
2023-02-04T05:41:40.127Z,4.22
2023-02-04T05:44:12.035Z,4.43
2023-02-04T05:46:44.754Z,4.88
2023-02-04T05:49:17.318Z,4.57
2023-02-04T05:51:50.445Z,5.20
2023-02-04T05:54:22.355Z,5.50
2023-02-04T05:56:55.145Z,5.00
2023-02-04T05:59:26.998Z,5.57
2023-02-04T06:02:02.753Z,5.63
2023-02-04T06:04:34.852Z,5.60
2023-02-04T06:07:07.607Z,5.47
2023-02-04T06:09:39.888Z,5.63
2023-02-04T06:12:11.811Z,5.72
2023-02-04T06:14:44.515Z,6.10
2023-02-04T06:17:17.336Z,5.93
2023-02-04T06:19:50.023Z,5.60
2023-02-04T06:22:24.752Z,5.50
2023-02-04T06:24:56.645Z,5.78
2023-02-04T06:27:29.624Z,5.55
2023-02-04T06:30:01.522Z,5.00
2023-02-04T06:32:34.260Z,5.90
2023-02-04T06:35:06.723Z,5.80
2023-02-04T06:37:39.824Z,5.65
2023-02-04T06:40:12.871Z,6.28
2023-02-04T06:42:45.233Z,5.70
2023-02-04T06:45:17.513Z,5.60
2023-02-04T06:47:49.388Z,6.23
2023-02-04T06:50:22.080Z,6.78
2023-02-04T06:52:53.967Z,6.45
2023-02-04T06:55:26.724Z,6.32
2023-02-04T06:57:58.668Z,6.57
2023-02-04T07:00:31.888Z,7.27
2023-02-04T07:03:03.968Z,7.03
2023-02-04T07:05:36.757Z,6.88
2023-02-04T07:08:10.449Z,8.05
2023-02-04T07:10:42.700Z,8.35
2023-02-04T07:13:14.968Z,8.10
2023-02-04T07:15:46.894Z,7.43
2023-02-04T07:18:20.369Z,6.95
2023-02-04T07:20:52.219Z,7.40
2023-02-04T07:23:25.744Z,7.55
2023-02-04T07:25:59.814Z,8.17
2023-02-04T07:28:32.512Z,8.20
2023-02-04T07:31:04.644Z,8.82
2023-02-04T07:33:37.372Z,9.25
2023-02-04T07:36:09.224Z,8.07
2023-02-04T07:38:42.179Z,8.30
2023-02-04T07:41:14.125Z,9.30
2023-02-04T07:43:47.515Z,9.50
2023-02-04T07:46:19.407Z,9.50
2023-02-04T07:48:52.656Z,9.65
2023-02-04T07:51:25.688Z,9.33
2023-02-04T07:53:59.098Z,9.43
2023-02-04T07:56:31.875Z,10.77
2023-02-04T07:59:04.169Z,10.40
2023-02-04T08:01:36.637Z,10.10
2023-02-04T08:04:09.385Z,11.10
2023-02-04T08:06:41.676Z,10.98
2023-02-04T08:09:13.936Z,11.48
2023-02-04T08:11:46.234Z,10.88
2023-02-04T08:14:18.134Z,11.32
2023-02-04T08:16:50.833Z,11.10
2023-02-04T08:19:22.870Z,11.25
2023-02-04T08:21:55.578Z,11.23
2023-02-04T08:24:27.537Z,11.77
2023-02-04T08:27:00.237Z,11.00
2023-02-04T08:29:32.088Z,12.60
2023-02-04T08:32:04.790Z,12.00
2023-02-04T08:34:37.209Z,11.60
2023-02-04T08:37:09.912Z,12.93
2023-02-04T08:39:46.130Z,12.05
2023-02-04T08:42:19.073Z,12.03
2023-02-04T08:44:51.315Z,13.18
2023-02-04T08:47:24.263Z,12.52
2023-02-04T08:49:56.868Z,13.60
2023-02-04T08:52:28.790Z,12.80
2023-02-04T08:55:23.727Z,13.23
2023-02-04T08:57:55.594Z,12.52
2023-02-04T09:00:28.640Z,11.63
2023-02-04T09:03:00.497Z,11.20
2023-02-04T09:05:33.255Z,11.43
2023-02-04T09:08:05.171Z,10.70
2023-02-04T09:10:37.786Z,10.82
2023-02-04T09:13:11.720Z,11.48
2023-02-04T09:15:44.462Z,10.75
2023-02-04T09:18:17.903Z,11.20
2023-02-04T09:20:52.726Z,10.30
2023-02-04T09:23:25.263Z,10.75
2023-02-04T09:25:57.266Z,10.90
2023-02-04T09:28:30.732Z,9.93
2023-02-04T09:31:04.778Z,11.52
2023-02-04T09:33:37.108Z,10.87
2023-02-04T09:36:12.576Z,10.10
2023-02-04T09:38:44.838Z,10.88
2023-02-04T09:41:17.583Z,10.07
2023-02-04T09:43:50.168Z,9.52
2023-02-04T09:46:28.871Z,8.87
2023-02-04T09:49:02.410Z,9.13
2023-02-04T09:51:36.303Z,10.00
2023-02-04T09:54:21.033Z,8.98
2023-02-04T09:56:53.558Z,8.20
2023-02-04T09:59:29.813Z,7.80
2023-02-04T10:02:05.292Z,7.95
2023-02-04T10:04:37.761Z,7.78
2023-02-04T10:07:13.649Z,7.60
2023-02-04T10:09:47.840Z,9.25
2023-02-04T10:12:20.256Z,7.53
2023-02-04T10:14:52.996Z,6.90
2023-02-04T10:17:27.340Z,6.78
2023-02-04T10:19:59.820Z,6.50
2023-02-04T10:22:32.927Z,7.18
2023-02-04T10:25:14.218Z,7.20
2023-02-04T10:27:59.288Z,7.22
2023-02-04T10:30:39.680Z,7.40
2023-02-04T10:33:25.541Z,7.47
2023-02-04T10:35:57.913Z,6.53
2023-02-04T10:38:30.946Z,7.10
2023-02-04T10:41:05.635Z,7.63
2023-02-04T10:43:38.342Z,7.15
2023-02-04T10:46:10.465Z,7.13
2023-02-04T10:48:43.680Z,7.05
2023-02-04T10:51:15.573Z,7.00
2023-02-04T10:54:06.824Z,6.05
2023-02-04T10:56:39.582Z,6.78
2023-02-04T10:59:27.047Z,7.82
2023-02-04T11:02:02.110Z,7.03
2023-02-04T11:04:34.444Z,7.07
2023-02-04T11:07:13.011Z,6.75
2023-02-04T11:09:44.934Z,6.60
2023-02-04T11:12:45.614Z,6.43
2023-02-04T11:15:51.305Z,6.40
2023-02-04T11:18:23.579Z,6.17
2023-02-04T11:20:59.768Z,6.22
2023-02-04T11:23:36.225Z,5.95
2023-02-04T11:26:21.048Z,5.60
2023-02-04T11:29:17.557Z,5.60
2023-02-04T11:31:49.514Z,4.07
2023-02-04T11:34:22.428Z,4.63
2023-02-04T11:37:14.789Z,4.00
2023-02-04T11:39:51.240Z,4.00
2023-02-04T11:42:41.928Z,3.70
2023-02-04T11:45:21.660Z,3.47
2023-02-04T11:47:57.598Z,3.53
2023-02-04T11:50:35.446Z,4.18
2023-02-04T11:56:06.791Z,3.95
2023-02-04T11:58:41.962Z,4.40
2023-02-04T12:01:30.176Z,3.30
2023-02-04T12:04:07.770Z,3.00
2023-02-04T12:06:40.863Z,2.88
2023-02-04T12:09:15.743Z,2.50
2023-02-04T12:12:01.149Z,3.00
2023-02-04T12:14:38.627Z,3.13
2023-02-04T12:17:20.003Z,3.30
2023-02-04T12:19:52.393Z,3.30
2023-02-04T12:22:24.745Z,3.28
2023-02-04T12:24:56.734Z,2.73
2023-02-04T12:27:29.924Z,3.10
2023-02-04T12:30:02.192Z,3.20
2023-02-04T12:32:35.359Z,3.35
2023-02-04T12:35:07.466Z,3.55
2023-02-04T12:37:40.173Z,3.73
2023-02-04T12:40:16.813Z,3.95
2023-02-04T12:42:49.500Z,4.10
2023-02-04T12:45:22.006Z,5.13
2023-02-04T12:47:54.843Z,5.13
2023-02-04T12:50:26.907Z,4.70
2023-02-04T12:53:03.082Z,5.55
2023-02-04T12:55:35.523Z,4.97
2023-02-04T12:58:08.363Z,5.15
2023-02-04T13:00:41.372Z,5.95
2023-02-04T13:03:13.783Z,5.00
2023-02-04T13:05:46.100Z,5.53
2023-02-04T13:08:18.357Z,5.07
2023-02-04T13:10:52.414Z,4.78
2023-02-04T13:13:24.519Z,5.38
2023-02-04T13:15:59.675Z,4.80
2023-02-04T13:18:51.844Z,5.20
2023-02-04T13:21:24.817Z,5.45
2023-02-04T13:23:57.315Z,5.55
2023-02-04T13:26:30.027Z,5.75
2023-02-04T13:29:02.416Z,5.60
2023-02-04T13:31:34.852Z,5.47
2023-02-04T13:34:07.778Z,6.43
2023-02-04T13:36:40.240Z,6.30
2023-02-04T13:39:16.137Z,6.72
2023-02-04T13:41:48.415Z,5.83
2023-02-04T13:44:21.137Z,6.20
2023-02-04T13:46:53.198Z,6.03
2023-02-04T13:49:26.014Z,5.60
2023-02-04T13:51:57.860Z,6.03
2023-02-04T13:54:30.153Z,5.60
2023-02-04T13:57:02.953Z,5.38
2023-02-04T13:59:34.807Z,5.90
2023-02-04T14:02:07.558Z,5.65
2023-02-04T14:04:39.496Z,5.50
2023-02-04T14:07:12.233Z,6.67
2023-02-04T14:09:44.967Z,5.45
2023-02-04T14:12:17.085Z,5.68
2023-02-04T14:14:49.910Z,5.25
2023-02-04T14:17:22.851Z,5.72
2023-02-04T14:19:55.385Z,5.17
2023-02-04T14:22:28.205Z,5.00
2023-02-04T14:25:01.746Z,5.20
2023-02-04T14:27:37.295Z,5.20
2023-02-04T14:30:23.268Z,5.03
2023-02-04T14:33:00.549Z,5.00
2023-02-04T14:35:33.240Z,5.53
2023-02-04T14:38:05.853Z,5.38
2023-02-04T14:40:41.426Z,5.40
2023-02-04T14:43:14.839Z,5.85
2023-02-04T14:45:47.184Z,5.10
2023-02-04T14:48:19.989Z,5.50
2023-02-04T14:50:52.346Z,5.70
2023-02-04T14:53:24.634Z,5.00
2023-02-04T14:55:57.477Z,5.50
2023-02-04T14:58:29.583Z,5.40
2023-02-04T15:01:02.832Z,5.43
2023-02-04T15:03:36.090Z,5.47
2023-02-04T15:06:08.453Z,5.57
2023-02-04T15:08:41.222Z,5.45
2023-02-04T15:11:16.123Z,4.90
2023-02-04T15:13:48.948Z,4.80
2023-02-04T15:16:21.214Z,4.93
2023-02-04T15:18:54.030Z,4.90
2023-02-04T15:21:29.382Z,9.13
2023-02-04T15:24:02.828Z,6.93
2023-02-04T15:26:34.698Z,4.85
2023-02-04T15:29:08.157Z,5.82
2023-02-04T15:31:40.228Z,5.28
2023-02-04T15:34:13.846Z,5.40
2023-02-04T15:36:45.773Z,5.53
2023-02-04T15:39:18.682Z,5.20
2023-02-04T15:41:51.068Z,5.45
2023-02-04T15:44:24.126Z,5.15
2023-02-04T15:46:56.850Z,5.10
2023-02-04T15:49:29.118Z,5.00
2023-02-04T15:52:08.870Z,5.20
2023-02-04T15:54:43.665Z,5.50
2023-02-04T15:57:15.995Z,5.65
2023-02-04T15:59:47.896Z,6.40
2023-02-04T16:02:21.034Z,6.50
2023-02-04T16:04:52.931Z,6.57
2023-02-04T16:07:26.870Z,6.35
2023-02-04T16:09:58.798Z,5.57
2023-02-04T16:12:32.099Z,5.63
2023-02-04T16:15:04.224Z,5.90
2023-02-04T16:17:37.212Z,5.40
2023-02-04T16:20:10.469Z,5.90
2023-02-04T16:22:43.623Z,6.18
2023-02-04T16:25:15.700Z,6.38
2023-02-04T16:27:49.602Z,5.17
2023-02-04T16:30:22.226Z,6.40
2023-02-04T16:32:54.547Z,5.53
2023-02-04T16:35:27.703Z,6.05
2023-02-04T16:38:01.168Z,6.47
2023-02-04T16:40:34.182Z,6.53
2023-02-04T16:43:06.508Z,6.03
2023-02-04T16:46:00.961Z,6.45
2023-02-04T16:48:32.880Z,6.55
2023-02-04T16:51:06.153Z,7.53
2023-02-04T16:53:41.178Z,7.80
2023-02-04T16:56:13.949Z,6.00
2023-02-04T16:58:46.093Z,6.72
2023-02-04T17:01:19.100Z,6.68
2023-02-04T17:04:03.091Z,7.30
2023-02-04T17:06:38.885Z,7.13
2023-02-04T17:09:10.841Z,7.57
2023-02-04T17:11:43.939Z,7.30
2023-02-04T17:14:16.043Z,6.88
2023-02-04T17:16:49.500Z,7.65
2023-02-04T17:19:21.425Z,7.17
2023-02-04T17:21:54.255Z,7.63
2023-02-04T17:24:26.105Z,7.90
2023-02-04T17:27:03.483Z,7.80
2023-02-04T17:29:36.468Z,7.20
2023-02-04T17:32:12.878Z,7.47
2023-02-04T17:34:44.752Z,8.25
2023-02-04T17:37:18.169Z,8.98
2023-02-04T17:39:52.345Z,8.80
2023-02-04T17:42:25.037Z,9.57
2023-02-04T17:44:57.328Z,8.97
2023-02-04T17:47:29.195Z,9.65
2023-02-04T17:50:05.910Z,8.10
2023-02-04T17:52:38.659Z,9.02
2023-02-04T17:55:28.145Z,9.35
2023-02-04T17:58:07.305Z,8.87
2023-02-04T18:00:40.882Z,9.15
2023-02-04T18:03:15.788Z,9.32
2023-02-04T18:06:22.521Z,8.52
2023-02-04T18:09:01.397Z,10.68
2023-02-04T18:11:40.282Z,10.23
2023-02-04T18:14:27.592Z,10.20
2023-02-04T18:17:00.469Z,12.70
2023-02-04T18:19:39.921Z,10.60
2023-02-04T18:22:19.562Z,10.68
2023-02-04T18:24:51.874Z,9.20
2023-02-04T18:27:29.423Z,9.57
2023-02-04T18:30:02.023Z,8.65
2023-02-04T18:32:40.601Z,8.55
2023-02-04T18:35:48.356Z,9.30
2023-02-04T18:38:23.141Z,9.23
2023-02-04T18:41:20.940Z,9.55
2023-02-04T18:46:56.939Z,8.43
2023-02-04T18:49:41.543Z,9.20
2023-02-04T18:52:19.819Z,8.03
2023-02-04T18:54:58.148Z,8.45
2023-02-04T18:57:40.132Z,8.15
2023-02-04T19:00:13.876Z,7.82
2023-02-04T19:03:29.047Z,8.45
2023-02-04T19:06:04.063Z,8.60
2023-02-04T19:08:45.000Z,9.10
2023-02-04T19:11:33.463Z,8.63
2023-02-04T19:14:21.180Z,8.85
2023-02-04T19:17:18.161Z,9.68
2023-02-04T19:19:58.087Z,10.07
2023-02-04T19:22:56.280Z,9.80
2023-02-04T19:28:39.025Z,8.88
2023-02-04T19:31:13.116Z,9.02
2023-02-04T19:33:46.131Z,9.00
2023-02-04T19:36:46.975Z,9.65
2023-02-04T19:39:40.963Z,8.88
2023-02-04T19:42:29.304Z,8.15
2023-02-04T19:45:15.010Z,8.68
2023-02-04T19:47:46.860Z,9.53
2023-02-04T19:50:24.280Z,8.50
2023-02-04T19:53:09.137Z,8.85
2023-02-04T19:55:46.162Z,9.02
2023-02-04T19:58:36.732Z,9.10
2023-02-04T20:01:19.918Z,8.37
2023-02-04T20:03:52.700Z,10.00
2023-02-04T20:06:36.345Z,9.10
2023-02-04T20:09:18.335Z,8.10
2023-02-04T20:11:58.236Z,8.63
2023-02-04T20:14:49.976Z,8.97
2023-02-04T20:17:37.683Z,10.55
2023-02-04T20:20:31.074Z,10.23
2023-02-04T20:23:32.744Z,9.98
2023-02-04T20:26:05.116Z,9.40
2023-02-04T20:28:42.809Z,9.40
2023-02-04T20:31:38.002Z,9.45
2023-02-04T20:34:22.648Z,16.63
2023-02-04T20:36:55.499Z,11.10
2023-02-04T20:42:43.547Z,8.83
2023-02-04T20:45:28.869Z,9.93
2023-02-04T20:48:35.572Z,8.90
2023-02-04T20:51:24.070Z,9.40
2023-02-04T20:54:02.785Z,9.73
2023-02-04T20:56:41.191Z,8.80
2023-02-04T20:59:36.807Z,8.68
2023-02-04T21:02:18.607Z,8.52
2023-02-04T21:04:53.791Z,8.75
2023-02-04T21:07:28.249Z,8.05
2023-02-04T21:10:01.976Z,8.60
2023-02-04T21:12:35.729Z,8.60
2023-02-04T21:15:08.487Z,8.68
2023-02-04T21:17:44.406Z,8.50
2023-02-04T21:20:17.199Z,8.55
2023-02-04T21:22:49.277Z,8.33
2023-02-04T21:25:21.759Z,9.02
2023-02-04T21:27:55.077Z,8.18
2023-02-04T21:30:30.249Z,8.05
2023-02-04T21:33:02.708Z,7.43
2023-02-04T21:35:34.888Z,7.47
2023-02-04T21:38:08.226Z,7.85
2023-02-04T21:40:40.258Z,7.63
2023-02-04T21:43:13.125Z,6.97
2023-02-04T21:45:45.051Z,6.93
2023-02-04T21:48:17.787Z,6.93
2023-02-04T21:50:49.641Z,6.85
2023-02-04T21:53:22.318Z,6.82
2023-02-04T21:55:54.254Z,6.15
2023-02-04T21:58:27.188Z,6.95
2023-02-04T22:00:59.099Z,6.70
2023-02-04T22:03:32.243Z,6.88
2023-02-04T22:06:04.328Z,23.55
2023-02-04T22:08:37.038Z,8.40
2023-02-04T22:11:08.896Z,6.90
2023-02-04T22:13:59.682Z,6.30
2023-02-04T22:16:31.681Z,6.15
2023-02-04T22:19:04.365Z,5.57
2023-02-04T22:21:37.229Z,6.25
2023-02-04T22:24:10.159Z,6.50
2023-02-04T22:26:42.762Z,6.37
2023-02-04T22:29:19.721Z,5.82
2023-02-04T22:31:51.601Z,6.90
2023-02-04T22:34:25.960Z,6.97
2023-02-04T22:36:58.354Z,6.57
2023-02-04T22:39:31.773Z,6.17
2023-02-04T22:42:03.765Z,6.55
2023-02-04T22:44:36.504Z,6.40
2023-02-04T22:47:08.442Z,6.60
2023-02-04T22:49:41.222Z,7.03
2023-02-04T22:52:15.037Z,7.17
2023-02-04T22:54:47.393Z,6.30
2023-02-04T22:57:19.753Z,7.30
2023-02-04T22:59:54.453Z,7.72
2023-02-04T23:02:50.048Z,7.53
2023-02-04T23:05:22.339Z,7.40
2023-02-04T23:07:59.045Z,10.48
2023-02-04T23:10:31.096Z,6.97
2023-02-04T23:13:03.853Z,7.85
2023-02-04T23:15:36.316Z,6.68
2023-02-04T23:18:08.643Z,6.70
2023-02-04T23:20:42.119Z,8.38
2023-02-04T23:23:17.469Z,6.55
2023-02-04T23:25:50.532Z,5.63
2023-02-04T23:28:22.850Z,6.93
2023-02-04T23:33:48.359Z,6.65
2023-02-04T23:36:20.293Z,6.88
2023-02-04T23:38:53.071Z,6.65
2023-02-04T23:41:25.340Z,6.30
2023-02-04T23:43:58.005Z,5.57
2023-02-04T23:46:33.718Z,6.18
2023-02-04T23:49:06.107Z,5.68
2023-02-04T23:51:38.709Z,5.47
2023-02-04T23:54:11.046Z,5.78
2023-02-04T23:56:46.805Z,6.23
2023-02-04T23:59:18.933Z,6.18
